City Of Port Allen — WDD9053 — position and weather

sailwx.info

Track history (hours):
 
Tides and Currents Weather Stations Pressure Air Temp Water Temp Dewpoint Dewpoint Depression Visibility Wind Speed Wind Dir Waves Ship Positions

City Of Port Allen

Owner: Ingram Barge Company LLC, Nashville, TN. More information available from US FCC via Universal Licensing System and Coast Guard Vessel Documentation Center.

Last reported at 2019-Mar-18 13:40 UTC. Time now 2019-Mar-20 09:03 UTC.
Position N 29°46' W 091°47'.

Length 23 m.

Type: Towing. MMSI: 367306270.

Date/timePositionNaut miles runAvg speedWind from/ knotsBaromVisibWave heightAir tempDewpointWater temp
2019-Mar-18 13:40N 29°46' W 091°47'1 4.6
2019-Mar-18 13:30N 29°47' W 091°48'2 4.1
2019-Mar-18 13:00N 29°48' W 091°49'2 4.5
2019-Mar-18 12:28N 29°50' W 091°50'2 4.8
2019-Mar-18 12:00N 29°51' W 091°53'2 4.8
2019-Mar-18 11:30N 29°51' W 091°56'2 4.5
2019-Mar-18 11:01N 29°50' W 091°58'2 4.5
2019-Mar-18 10:30N 29°49' W 092°01'2 4.1
2019-Mar-18 10:01N 29°49' W 092°03'2 4.5
2019-Mar-18 09:30N 29°48' W 092°05'2 4.5
2019-Mar-18 09:01N 29°47' W 092°08'2 3.3
2019-Mar-18 08:31N 29°47' W 092°10'2 3.6
2019-Mar-18 08:01N 29°47' W 092°12'1 2.0
2019-Mar-18 07:31N 29°47' W 092°13'1 2.6
2019-Mar-18 07:01N 29°48' W 092°14'0 0.2
2019-Mar-18 06:30N 29°48' W 092°14'0 0.8
2019-Mar-18 06:01N 29°48' W 092°15'1 1.5
2019-Mar-18 05:31N 29°48' W 092°15'0 0.8
2019-Mar-18 05:01N 29°48' W 092°16'1 1.0
2019-Mar-18 04:31N 29°49' W 092°16'2 4.0
2019-Mar-18 04:00N 29°50' W 092°18'1 3.0
2019-Mar-18 03:31N 29°50' W 092°20'2 3.8
2019-Mar-18 03:00N 29°51' W 092°22'2 3.4
2019-Mar-18 02:27N 29°53' W 092°23'2 3.6
2019-Mar-18 02:01N 29°53' W 092°25'2 4.1
2019-Mar-18 01:30N 29°54' W 092°27'2 4.3
2019-Mar-18 01:01N 29°54' W 092°30'32 3.9
2019-Mar-17 16:50N 29°56' W 093°06'1 2.6
2019-Mar-17 16:31N 29°56' W 093°07'2 3.9
2019-Mar-17 16:01N 29°56' W 093°09'2 4.0
2019-Mar-17 15:31N 29°58' W 093°11'2 3.8
2019-Mar-17 15:00N 29°59' W 093°12'2 3.2
2019-Mar-17 14:31N 30°00' W 093°14'2 3.4
2019-Mar-17 14:01N 30°02' W 093°15'2 3.5
2019-Mar-17 13:31N 30°03' W 093°16'2 3.6
2019-Mar-17 13:01N 30°05' W 093°17'1 1.8
2019-Mar-17 12:31N 30°05' W 093°18'1 1.1
2019-Mar-17 12:00N 30°06' W 093°18'1 2.7
2019-Mar-17 11:31N 30°05' W 093°20'2 3.9
2019-Mar-17 11:00N 30°04' W 093°21'1 1.7
2019-Mar-17 10:30N 30°04' W 093°22'0 0.1
2019-Mar-17 10:01N 30°04' W 093°22'0 0.0
2019-Mar-17 09:30N 30°04' W 093°22'0 0.0
2019-Mar-17 09:01N 30°04' W 093°22'0 0.0
2019-Mar-17 08:30N 30°04' W 093°22'0 0.0
2019-Mar-17 08:01N 30°04' W 093°22'0 0.0
2019-Mar-17 07:31N 30°04' W 093°22'0 0.1
2019-Mar-17 07:01N 30°04' W 093°22'0 0.1
2019-Mar-17 06:30N 30°04' W 093°22'0 0.0
2019-Mar-17 06:01N 30°04' W 093°22'0 0.0
2019-Mar-17 05:30N 30°04' W 093°22'0 0.0
2019-Mar-17 05:01N 30°04' W 093°22'0 0.0
2019-Mar-17 04:31N 30°04' W 093°22'0 0.0
2019-Mar-17 04:01N 30°04' W 093°22'0 0.2
2019-Mar-17 03:31N 30°04' W 093°22'0 0.3
2019-Mar-17 03:01N 30°04' W 093°22'0 0.3
2019-Mar-17 02:30N 30°04' W 093°22'0 0.3
2019-Mar-17 02:00N 30°04' W 093°22'0 0.0
2019-Mar-17 01:31N 30°04' W 093°22'0 0.0
2019-Mar-17 01:01N 30°04' W 093°22'0 0.0
2019-Mar-17 00:30N 30°04' W 093°22'0 0.0
2019-Mar-17 00:00N 30°04' W 093°22'0 0.0
2019-Mar-16 23:30N 30°04' W 093°22'0 0.0
2019-Mar-16 23:00N 30°04' W 093°22'0 0.1
2019-Mar-16 22:31N 30°04' W 093°22'0 0.0
2019-Mar-16 22:01N 30°04' W 093°22'0 0.2
2019-Mar-16 21:31N 30°04' W 093°22'2 3.5
2019-Mar-16 21:01N 30°05' W 093°20'2 4.1
2019-Mar-16 20:31N 30°06' W 093°19'1 2.5
2019-Mar-16 20:01N 30°05' W 093°18'1 2.1
2019-Mar-16 19:30N 30°05' W 093°17'1 2.1
2019-Mar-16 19:01N 30°04' W 093°16'0 0.3
2019-Mar-16 18:31N 30°04' W 093°16'0 0.2
2019-Mar-16 18:00N 30°04' W 093°16'0 0.0
2019-Mar-16 17:30N 30°04' W 093°16'0 0.0
2019-Mar-16 17:01N 30°04' W 093°16'0 0.0
2019-Mar-16 16:30N 30°04' W 093°16'0 0.0
2019-Mar-16 16:00N 30°04' W 093°16'0 0.0
2019-Mar-16 15:30N 30°04' W 093°16'0 0.0
2019-Mar-16 15:01N 30°04' W 093°16'0 0.0
2019-Mar-16 14:31N 30°04' W 093°16'0 0.0
2019-Mar-16 14:01N 30°04' W 093°16'0 0.0
2019-Mar-16 13:31N 30°04' W 093°16'0 0.0
2019-Mar-16 13:01N 30°04' W 093°16'0 0.0
2019-Mar-16 12:31N 30°04' W 093°16'0 0.0
2019-Mar-16 12:01N 30°04' W 093°16'0 0.0
2019-Mar-16 11:31N 30°04' W 093°16'0 0.0
2019-Mar-16 11:00N 30°04' W 093°16'0 0.2
2019-Mar-16 10:30N 30°04' W 093°16'1 0.8
2019-Mar-16 09:43N 30°03' W 093°16'1 3.4
2019-Mar-16 09:22N 30°02' W 093°15'1 3.8
2019-Mar-16 09:00N 30°01' W 093°14'2 3.8
2019-Mar-16 08:30N 29°60' W 093°13'2 3.2
2019-Mar-16 08:01N 29°58' W 093°12'2 3.7
2019-Mar-16 07:31N 29°57' W 093°10'2 3.7
2019-Mar-16 07:00N 29°56' W 093°09'2 3.9
2019-Mar-16 06:30N 29°56' W 093°06'2 4.0
2019-Mar-16 06:00N 29°56' W 093°04'2 4.1
2019-Mar-16 05:30N 29°56' W 093°02'2 3.9
2019-Mar-16 05:00N 29°56' W 092°59'2 3.8
2019-Mar-16 04:30N 29°56' W 092°57'27 3.5
2019-Mar-15 20:43N 29°53' W 092°26'1 3.3
2019-Mar-15 20:15N 29°53' W 092°24'1 3.0
2019-Mar-15 19:58N 29°53' W 092°23'2 3.2
2019-Mar-15 19:29N 29°52' W 092°22'2 3.0
2019-Mar-15 18:57N 29°51' W 092°20'1 2.6
2019-Mar-15 18:30N 29°50' W 092°19'1 2.2
2019-Mar-15 18:01N 29°50' W 092°18'2 3.2
2019-Mar-15 17:31N 29°49' W 092°17'2 3.4
2019-Mar-15 17:00N 29°48' W 092°15'2 3.6
2019-Mar-15 16:30N 29°47' W 092°13'1 2.1
2019-Mar-15 16:00N 29°47' W 092°12'1 1.0
2019-Mar-15 15:02N 29°47' W 092°11'0 0.0
2019-Mar-15 15:00N 29°47' W 092°11'0 0.0
2019-Mar-15 14:30N 29°47' W 092°11'0 0.0
2019-Mar-15 14:00N 29°47' W 092°11'0 0.0
2019-Mar-15 13:30N 29°47' W 092°11'0 0.0
2019-Mar-15 13:00N 29°47' W 092°11'1 1.2
2019-Mar-15 12:30N 29°47' W 092°10'2 3.4
2019-Mar-15 12:00N 29°47' W 092°08'2 4.1
2019-Mar-15 11:30N 29°48' W 092°06'2 3.7
2019-Mar-15 11:00N 29°48' W 092°04'2 3.8
2019-Mar-15 10:30N 29°49' W 092°02'2 3.5
2019-Mar-15 10:00N 29°50' W 092°00'2 3.9
2019-Mar-15 09:22N 29°50' W 091°58'7 3.3
2019-Mar-15 07:18N 29°50' W 091°50'1 3.6
2019-Mar-15 07:00N 29°49' W 091°49'3 4.1
2019-Mar-15 06:21N 29°47' W 091°48'4 2.3
2019-Mar-15 04:44N 29°46' W 091°44'0 0.0
2019-Mar-15 04:25N 29°46' W 091°44'0 0.0
2019-Mar-15 03:30N 29°46' W 091°44'  
Track history (hours):
 
Tides and Currents Weather Stations Pressure Air Temp Water Temp Dewpoint Dewpoint Depression Visibility Wind Speed Wind Dir Waves Ship Positions

City Of Port Allen

Owner: Ingram Barge Company LLC, Nashville, TN. More information available from US FCC via Universal Licensing System and Coast Guard Vessel Documentation Center.

Last reported at 2019-Mar-18 13:40 UTC. Time now 2019-Mar-20 09:03 UTC.
Position N 29°46' W 091°47'.

Length 23 m.

Type: Towing. MMSI: 367306270.

Date/timePositionNaut miles runAvg speedWind from/ knotsBaromVisibWave heightAir tempDewpointWater temp
2019-Mar-18 13:40N 29°46' W 091°47'1 4.6
2019-Mar-18 13:30N 29°47' W 091°48'2 4.1
2019-Mar-18 13:00N 29°48' W 091°49'2 4.5
2019-Mar-18 12:28N 29°50' W 091°50'2 4.8
2019-Mar-18 12:00N 29°51' W 091°53'2 4.8
2019-Mar-18 11:30N 29°51' W 091°56'2 4.5
2019-Mar-18 11:01N 29°50' W 091°58'2 4.5
2019-Mar-18 10:30N 29°49' W 092°01'2 4.1
2019-Mar-18 10:01N 29°49' W 092°03'2 4.5
2019-Mar-18 09:30N 29°48' W 092°05'2 4.5
2019-Mar-18 09:01N 29°47' W 092°08'2 3.3
2019-Mar-18 08:31N 29°47' W 092°10'2 3.6
2019-Mar-18 08:01N 29°47' W 092°12'1 2.0
2019-Mar-18 07:31N 29°47' W 092°13'1 2.6
2019-Mar-18 07:01N 29°48' W 092°14'0 0.2
2019-Mar-18 06:30N 29°48' W 092°14'0 0.8
2019-Mar-18 06:01N 29°48' W 092°15'1 1.5
2019-Mar-18 05:31N 29°48' W 092°15'0 0.8
2019-Mar-18 05:01N 29°48' W 092°16'1 1.0
2019-Mar-18 04:31N 29°49' W 092°16'2 4.0
2019-Mar-18 04:00N 29°50' W 092°18'1 3.0
2019-Mar-18 03:31N 29°50' W 092°20'2 3.8
2019-Mar-18 03:00N 29°51' W 092°22'2 3.4
2019-Mar-18 02:27N 29°53' W 092°23'2 3.6
2019-Mar-18 02:01N 29°53' W 092°25'2 4.1
2019-Mar-18 01:30N 29°54' W 092°27'2 4.3
2019-Mar-18 01:01N 29°54' W 092°30'32 3.9
2019-Mar-17 16:50N 29°56' W 093°06'1 2.6
2019-Mar-17 16:31N 29°56' W 093°07'2 3.9
2019-Mar-17 16:01N 29°56' W 093°09'2 4.0
2019-Mar-17 15:31N 29°58' W 093°11'2 3.8
2019-Mar-17 15:00N 29°59' W 093°12'2 3.2
2019-Mar-17 14:31N 30°00' W 093°14'2 3.4
2019-Mar-17 14:01N 30°02' W 093°15'2 3.5
2019-Mar-17 13:31N 30°03' W 093°16'2 3.6
2019-Mar-17 13:01N 30°05' W 093°17'1 1.8
2019-Mar-17 12:31N 30°05' W 093°18'1 1.1
2019-Mar-17 12:00N 30°06' W 093°18'1 2.7
2019-Mar-17 11:31N 30°05' W 093°20'2 3.9
2019-Mar-17 11:00N 30°04' W 093°21'1 1.7
2019-Mar-17 10:30N 30°04' W 093°22'0 0.1
2019-Mar-17 10:01N 30°04' W 093°22'0 0.0
2019-Mar-17 09:30N 30°04' W 093°22'0 0.0
2019-Mar-17 09:01N 30°04' W 093°22'0 0.0
2019-Mar-17 08:30N 30°04' W 093°22'0 0.0
2019-Mar-17 08:01N 30°04' W 093°22'0 0.0
2019-Mar-17 07:31N 30°04' W 093°22'0 0.1
2019-Mar-17 07:01N 30°04' W 093°22'0 0.1
2019-Mar-17 06:30N 30°04' W 093°22'0 0.0
2019-Mar-17 06:01N 30°04' W 093°22'0 0.0
2019-Mar-17 05:30N 30°04' W 093°22'0 0.0
2019-Mar-17 05:01N 30°04' W 093°22'0 0.0
2019-Mar-17 04:31N 30°04' W 093°22'0 0.0
2019-Mar-17 04:01N 30°04' W 093°22'0 0.2
2019-Mar-17 03:31N 30°04' W 093°22'0 0.3
2019-Mar-17 03:01N 30°04' W 093°22'0 0.3
2019-Mar-17 02:30N 30°04' W 093°22'0 0.3
2019-Mar-17 02:00N 30°04' W 093°22'0 0.0
2019-Mar-17 01:31N 30°04' W 093°22'0 0.0
2019-Mar-17 01:01N 30°04' W 093°22'0 0.0
2019-Mar-17 00:30N 30°04' W 093°22'0 0.0
2019-Mar-17 00:00N 30°04' W 093°22'0 0.0
2019-Mar-16 23:30N 30°04' W 093°22'0 0.0
2019-Mar-16 23:00N 30°04' W 093°22'0 0.1
2019-Mar-16 22:31N 30°04' W 093°22'0 0.0
2019-Mar-16 22:01N 30°04' W 093°22'0 0.2
2019-Mar-16 21:31N 30°04' W 093°22'2 3.5
2019-Mar-16 21:01N 30°05' W 093°20'2 4.1
2019-Mar-16 20:31N 30°06' W 093°19'1 2.5
2019-Mar-16 20:01N 30°05' W 093°18'1 2.1
2019-Mar-16 19:30N 30°05' W 093°17'1 2.1
2019-Mar-16 19:01N 30°04' W 093°16'0 0.3
2019-Mar-16 18:31N 30°04' W 093°16'0 0.2
2019-Mar-16 18:00N 30°04' W 093°16'0 0.0
2019-Mar-16 17:30N 30°04' W 093°16'0 0.0
2019-Mar-16 17:01N 30°04' W 093°16'0 0.0
2019-Mar-16 16:30N 30°04' W 093°16'0 0.0
2019-Mar-16 16:00N 30°04' W 093°16'0 0.0
2019-Mar-16 15:30N 30°04' W 093°16'0 0.0
2019-Mar-16 15:01N 30°04' W 093°16'0 0.0
2019-Mar-16 14:31N 30°04' W 093°16'0 0.0
2019-Mar-16 14:01N 30°04' W 093°16'0 0.0
2019-Mar-16 13:31N 30°04' W 093°16'0 0.0
2019-Mar-16 13:01N 30°04' W 093°16'0 0.0
2019-Mar-16 12:31N 30°04' W 093°16'0 0.0
2019-Mar-16 12:01N 30°04' W 093°16'0 0.0
2019-Mar-16 11:31N 30°04' W 093°16'0 0.0
2019-Mar-16 11:00N 30°04' W 093°16'0 0.2
2019-Mar-16 10:30N 30°04' W 093°16'1 0.8
2019-Mar-16 09:43N 30°03' W 093°16'1 3.4
2019-Mar-16 09:22N 30°02' W 093°15'1 3.8
2019-Mar-16 09:00N 30°01' W 093°14'2 3.8
2019-Mar-16 08:30N 29°60' W 093°13'2 3.2
2019-Mar-16 08:01N 29°58' W 093°12'2 3.7
2019-Mar-16 07:31N 29°57' W 093°10'2 3.7
2019-Mar-16 07:00N 29°56' W 093°09'2 3.9
2019-Mar-16 06:30N 29°56' W 093°06'2 4.0
2019-Mar-16 06:00N 29°56' W 093°04'2 4.1
2019-Mar-16 05:30N 29°56' W 093°02'2 3.9
2019-Mar-16 05:00N 29°56' W 092°59'2 3.8
2019-Mar-16 04:30N 29°56' W 092°57'27 3.5
2019-Mar-15 20:43N 29°53' W 092°26'1 3.3
2019-Mar-15 20:15N 29°53' W 092°24'1 3.0
2019-Mar-15 19:58N 29°53' W 092°23'2 3.2
2019-Mar-15 19:29N 29°52' W 092°22'2 3.0
2019-Mar-15 18:57N 29°51' W 092°20'1 2.6
2019-Mar-15 18:30N 29°50' W 092°19'1 2.2
2019-Mar-15 18:01N 29°50' W 092°18'2 3.2
2019-Mar-15 17:31N 29°49' W 092°17'2 3.4
2019-Mar-15 17:00N 29°48' W 092°15'2 3.6
2019-Mar-15 16:30N 29°47' W 092°13'1 2.1
2019-Mar-15 16:00N 29°47' W 092°12'1 1.0
2019-Mar-15 15:02N 29°47' W 092°11'0 0.0
2019-Mar-15 15:00N 29°47' W 092°11'0 0.0
2019-Mar-15 14:30N 29°47' W 092°11'0 0.0
2019-Mar-15 14:00N 29°47' W 092°11'0 0.0
2019-Mar-15 13:30N 29°47' W 092°11'0 0.0
2019-Mar-15 13:00N 29°47' W 092°11'1 1.2
2019-Mar-15 12:30N 29°47' W 092°10'2 3.4
2019-Mar-15 12:00N 29°47' W 092°08'2 4.1
2019-Mar-15 11:30N 29°48' W 092°06'2 3.7
2019-Mar-15 11:00N 29°48' W 092°04'2 3.8
2019-Mar-15 10:30N 29°49' W 092°02'2 3.5
2019-Mar-15 10:00N 29°50' W 092°00'2 3.9
2019-Mar-15 09:22N 29°50' W 091°58'7 3.3
2019-Mar-15 07:18N 29°50' W 091°50'1 3.6
2019-Mar-15 07:00N 29°49' W 091°49'3 4.1
2019-Mar-15 06:21N 29°47' W 091°48'4 2.3
2019-Mar-15 04:44N 29°46' W 091°44'0 0.0
2019-Mar-15 04:25N 29°46' W 091°44'0 0.0
2019-Mar-15 03:30N 29°46' W 091°44'  

Dump ship's entire track history